sensor_id;sensor_type;location;lat;lon;timestamp;P1;durP1;ratioP1;P2;durP2;ratioP2
47519;SDS011;33252;48.122;11.538;2023-07-13T00:00:33;4.72;;;3.85;;
47519;SDS011;33252;48.122;11.538;2023-07-13T00:02:59;4.78;;;3.83;;
47519;SDS011;33252;48.122;11.538;2023-07-13T00:05:24;6.70;;;4.30;;
47519;SDS011;33252;48.122;11.538;2023-07-13T00:07:51;5.07;;;3.58;;
47519;SDS011;33252;48.122;11.538;2023-07-13T00:10:17;7.88;;;4.15;;
47519;SDS011;33252;48.122;11.538;2023-07-13T00:12:43;4.28;;;3.38;;
47519;SDS011;33252;48.122;11.538;2023-07-13T00:15:14;6.15;;;3.38;;
47519;SDS011;33252;48.122;11.538;2023-07-13T00:17:47;6.72;;;3.78;;
47519;SDS011;33252;48.122;11.538;2023-07-13T00:20:24;4.07;;;3.50;;
47519;SDS011;33252;48.122;11.538;2023-07-13T00:22:50;5.18;;;3.17;;
47519;SDS011;33252;48.122;11.538;2023-07-13T00:25:20;4.05;;;3.65;;
47519;SDS011;33252;48.122;11.538;2023-07-13T00:27:49;5.13;;;3.80;;
47519;SDS011;33252;48.122;11.538;2023-07-13T00:30:15;4.78;;;3.50;;
47519;SDS011;33252;48.122;11.538;2023-07-13T00:32:41;4.13;;;3.47;;
47519;SDS011;33252;48.122;11.538;2023-07-13T00:35:07;4.93;;;3.70;;
47519;SDS011;33252;48.122;11.538;2023-07-13T00:37:33;5.43;;;3.33;;
47519;SDS011;33252;48.122;11.538;2023-07-13T00:40:01;3.95;;;2.63;;
47519;SDS011;33252;48.122;11.538;2023-07-13T00:42:30;5.57;;;2.97;;
47519;SDS011;33252;48.122;11.538;2023-07-13T00:47:37;5.50;;;3.70;;
47519;SDS011;33252;48.122;11.538;2023-07-13T00:50:08;6.07;;;2.33;;
47519;SDS011;33252;48.122;11.538;2023-07-13T00:52:37;6.40;;;2.83;;
47519;SDS011;33252;48.122;11.538;2023-07-13T00:55:06;3.78;;;2.30;;
47519;SDS011;33252;48.122;11.538;2023-07-13T00:57:34;3.47;;;2.30;;
47519;SDS011;33252;48.122;11.538;2023-07-13T01:00:01;2.85;;;2.38;;
47519;SDS011;33252;48.122;11.538;2023-07-13T01:02:34;4.95;;;2.67;;
47519;SDS011;33252;48.122;11.538;2023-07-13T01:05:08;5.05;;;2.50;;
47519;SDS011;33252;48.122;11.538;2023-07-13T01:07:41;2.75;;;1.92;;
47519;SDS011;33252;48.122;11.538;2023-07-13T01:10:10;3.78;;;3.40;;
47519;SDS011;33252;48.122;11.538;2023-07-13T01:12:36;3.35;;;2.08;;
47519;SDS011;33252;48.122;11.538;2023-07-13T01:15:02;5.65;;;2.45;;
47519;SDS011;33252;48.122;11.538;2023-07-13T01:17:29;4.65;;;2.25;;
47519;SDS011;33252;48.122;11.538;2023-07-13T01:19:58;2.90;;;2.40;;
47519;SDS011;33252;48.122;11.538;2023-07-13T01:22:26;5.18;;;2.75;;
47519;SDS011;33252;48.122;11.538;2023-07-13T01:24:52;4.25;;;2.28;;
47519;SDS011;33252;48.122;11.538;2023-07-13T01:27:23;2.45;;;1.90;;
47519;SDS011;33252;48.122;11.538;2023-07-13T01:29:50;2.92;;;2.10;;
47519;SDS011;33252;48.122;11.538;2023-07-13T01:32:19;5.60;;;2.30;;
47519;SDS011;33252;48.122;11.538;2023-07-13T01:34:49;4.72;;;2.25;;
47519;SDS011;33252;48.122;11.538;2023-07-13T01:37:16;4.35;;;2.88;;
47519;SDS011;33252;48.122;11.538;2023-07-13T01:39:42;3.50;;;2.20;;
47519;SDS011;33252;48.122;11.538;2023-07-13T01:42:08;3.70;;;2.50;;
47519;SDS011;33252;48.122;11.538;2023-07-13T01:44:34;5.50;;;2.42;;
47519;SDS011;33252;48.122;11.538;2023-07-13T01:47:00;5.63;;;2.63;;
47519;SDS011;33252;48.122;11.538;2023-07-13T01:49:26;4.85;;;2.58;;
47519;SDS011;33252;48.122;11.538;2023-07-13T01:51:51;10.60;;;2.67;;
47519;SDS011;33252;48.122;11.538;2023-07-13T01:54:17;3.97;;;2.55;;
47519;SDS011;33252;48.122;11.538;2023-07-13T01:56:43;4.35;;;2.70;;
47519;SDS011;33252;48.122;11.538;2023-07-13T01:59:08;4.57;;;2.13;;
47519;SDS011;33252;48.122;11.538;2023-07-13T02:01:34;4.75;;;2.30;;
47519;SDS011;33252;48.122;11.538;2023-07-13T02:04:00;5.07;;;2.28;;
47519;SDS011;33252;48.122;11.538;2023-07-13T02:06:26;4.90;;;2.65;;
47519;SDS011;33252;48.122;11.538;2023-07-13T02:08:51;5.45;;;2.90;;
47519;SDS011;33252;48.122;11.538;2023-07-13T02:11:17;7.07;;;2.92;;
47519;SDS011;33252;48.122;11.538;2023-07-13T02:13:45;5.38;;;2.60;;
47519;SDS011;33252;48.122;11.538;2023-07-13T02:16:11;4.05;;;2.65;;
47519;SDS011;33252;48.122;11.538;2023-07-13T02:18:37;4.40;;;2.30;;
47519;SDS011;33252;48.122;11.538;2023-07-13T02:21:03;4.15;;;2.78;;
47519;SDS011;33252;48.122;11.538;2023-07-13T02:23:29;4.93;;;2.90;;
47519;SDS011;33252;48.122;11.538;2023-07-13T02:25:58;5.20;;;3.28;;
47519;SDS011;33252;48.122;11.538;2023-07-13T02:28:25;3.10;;;2.80;;
47519;SDS011;33252;48.122;11.538;2023-07-13T02:30:51;5.28;;;3.35;;
47519;SDS011;33252;48.122;11.538;2023-07-13T02:33:17;6.07;;;3.67;;
47519;SDS011;33252;48.122;11.538;2023-07-13T02:35:42;6.05;;;3.65;;
47519;SDS011;33252;48.122;11.538;2023-07-13T02:38:08;3.08;;;2.78;;
47519;SDS011;33252;48.122;11.538;2023-07-13T02:40:34;4.68;;;3.25;;
47519;SDS011;33252;48.122;11.538;2023-07-13T02:43:00;5.82;;;3.20;;
47519;SDS011;33252;48.122;11.538;2023-07-13T02:45:26;5.72;;;2.45;;
47519;SDS011;33252;48.122;11.538;2023-07-13T02:47:52;6.43;;;3.15;;
47519;SDS011;33252;48.122;11.538;2023-07-13T02:50:18;6.53;;;3.22;;
47519;SDS011;33252;48.122;11.538;2023-07-13T02:52:44;6.78;;;3.55;;
47519;SDS011;33252;48.122;11.538;2023-07-13T02:55:10;5.43;;;3.50;;
47519;SDS011;33252;48.122;11.538;2023-07-13T02:57:35;8.50;;;4.22;;
47519;SDS011;33252;48.122;11.538;2023-07-13T03:00:02;8.32;;;3.75;;
47519;SDS011;33252;48.122;11.538;2023-07-13T03:02:33;5.07;;;3.72;;
47519;SDS011;33252;48.122;11.538;2023-07-13T03:04:59;6.65;;;4.07;;
47519;SDS011;33252;48.122;11.538;2023-07-13T03:07:25;6.28;;;3.33;;
47519;SDS011;33252;48.122;11.538;2023-07-13T03:09:57;6.97;;;4.20;;
47519;SDS011;33252;48.122;11.538;2023-07-13T03:12:24;8.10;;;3.72;;
47519;SDS011;33252;48.122;11.538;2023-07-13T03:14:49;8.90;;;3.83;;
47519;SDS011;33252;48.122;11.538;2023-07-13T03:17:16;4.22;;;2.75;;
47519;SDS011;33252;48.122;11.538;2023-07-13T03:19:41;6.28;;;3.67;;
47519;SDS011;33252;48.122;11.538;2023-07-13T03:22:08;6.10;;;2.88;;
47519;SDS011;33252;48.122;11.538;2023-07-13T03:24:34;5.85;;;3.25;;
47519;SDS011;33252;48.122;11.538;2023-07-13T03:27:01;4.00;;;2.92;;
47519;SDS011;33252;48.122;11.538;2023-07-13T03:29:28;5.43;;;2.78;;
47519;SDS011;33252;48.122;11.538;2023-07-13T03:31:54;5.22;;;3.00;;
47519;SDS011;33252;48.122;11.538;2023-07-13T03:34:19;6.43;;;3.20;;
47519;SDS011;33252;48.122;11.538;2023-07-13T03:36:45;4.88;;;3.17;;
47519;SDS011;33252;48.122;11.538;2023-07-13T03:39:11;5.03;;;3.50;;
47519;SDS011;33252;48.122;11.538;2023-07-13T03:41:36;5.18;;;3.10;;
47519;SDS011;33252;48.122;11.538;2023-07-13T03:44:02;4.93;;;2.80;;
47519;SDS011;33252;48.122;11.538;2023-07-13T03:46:28;6.32;;;3.08;;
47519;SDS011;33252;48.122;11.538;2023-07-13T03:48:54;7.05;;;3.20;;
47519;SDS011;33252;48.122;11.538;2023-07-13T03:51:20;5.30;;;3.45;;
47519;SDS011;33252;48.122;11.538;2023-07-13T03:53:46;6.65;;;3.10;;
47519;SDS011;33252;48.122;11.538;2023-07-13T03:56:13;6.57;;;3.85;;
47519;SDS011;33252;48.122;11.538;2023-07-13T03:58:40;8.98;;;4.13;;
47519;SDS011;33252;48.122;11.538;2023-07-13T04:01:08;9.02;;;4.40;;
47519;SDS011;33252;48.122;11.538;2023-07-13T04:03:35;7.85;;;3.55;;
47519;SDS011;33252;48.122;11.538;2023-07-13T04:06:02;4.15;;;3.42;;
47519;SDS011;33252;48.122;11.538;2023-07-13T04:08:30;4.82;;;3.10;;
47519;SDS011;33252;48.122;11.538;2023-07-13T04:10:58;6.00;;;3.15;;
47519;SDS011;33252;48.122;11.538;2023-07-13T04:13:24;4.95;;;3.30;;
47519;SDS011;33252;48.122;11.538;2023-07-13T04:15:50;4.78;;;3.03;;
47519;SDS011;33252;48.122;11.538;2023-07-13T04:18:16;4.68;;;3.42;;
47519;SDS011;33252;48.122;11.538;2023-07-13T04:20:42;5.40;;;3.25;;
47519;SDS011;33252;48.122;11.538;2023-07-13T04:23:08;4.85;;;2.92;;
47519;SDS011;33252;48.122;11.538;2023-07-13T04:25:33;4.80;;;2.92;;
47519;SDS011;33252;48.122;11.538;2023-07-13T04:27:59;4.85;;;3.05;;
47519;SDS011;33252;48.122;11.538;2023-07-13T04:30:25;6.85;;;3.60;;
47519;SDS011;33252;48.122;11.538;2023-07-13T04:32:52;6.35;;;3.47;;
47519;SDS011;33252;48.122;11.538;2023-07-13T04:35:20;3.45;;;2.88;;
47519;SDS011;33252;48.122;11.538;2023-07-13T04:37:50;5.47;;;2.78;;
47519;SDS011;33252;48.122;11.538;2023-07-13T04:40:19;4.70;;;2.78;;
47519;SDS011;33252;48.122;11.538;2023-07-13T04:42:45;4.22;;;2.50;;
47519;SDS011;33252;48.122;11.538;2023-07-13T04:45:11;5.30;;;3.17;;
47519;SDS011;33252;48.122;11.538;2023-07-13T04:47:38;4.65;;;2.60;;
47519;SDS011;33252;48.122;11.538;2023-07-13T04:50:05;3.33;;;3.00;;
47519;SDS011;33252;48.122;11.538;2023-07-13T04:52:31;3.90;;;3.00;;
47519;SDS011;33252;48.122;11.538;2023-07-13T04:54:58;4.13;;;3.03;;
47519;SDS011;33252;48.122;11.538;2023-07-13T04:57:24;5.18;;;2.95;;
47519;SDS011;33252;48.122;11.538;2023-07-13T04:59:51;2.78;;;2.42;;
47519;SDS011;33252;48.122;11.538;2023-07-13T05:02:16;5.25;;;3.00;;
47519;SDS011;33252;48.122;11.538;2023-07-13T05:04:43;5.32;;;2.63;;
47519;SDS011;33252;48.122;11.538;2023-07-13T05:07:12;4.57;;;2.65;;
47519;SDS011;33252;48.122;11.538;2023-07-13T05:09:38;4.57;;;2.70;;
47519;SDS011;33252;48.122;11.538;2023-07-13T05:12:05;6.53;;;2.78;;
47519;SDS011;33252;48.122;11.538;2023-07-13T05:14:32;6.05;;;3.05;;
47519;SDS011;33252;48.122;11.538;2023-07-13T05:16:58;4.28;;;2.60;;
47519;SDS011;33252;48.122;11.538;2023-07-13T05:19:23;7.40;;;2.63;;
47519;SDS011;33252;48.122;11.538;2023-07-13T05:21:49;4.55;;;3.08;;
47519;SDS011;33252;48.122;11.538;2023-07-13T05:24:15;6.60;;;2.83;;
47519;SDS011;33252;48.122;11.538;2023-07-13T05:26:40;5.20;;;2.47;;
47519;SDS011;33252;48.122;11.538;2023-07-13T05:29:06;4.57;;;2.83;;
47519;SDS011;33252;48.122;11.538;2023-07-13T05:31:32;5.40;;;2.90;;
47519;SDS011;33252;48.122;11.538;2023-07-13T05:33:57;5.32;;;2.80;;
47519;SDS011;33252;48.122;11.538;2023-07-13T05:36:23;7.93;;;2.90;;
47519;SDS011;33252;48.122;11.538;2023-07-13T05:38:49;4.10;;;2.88;;
47519;SDS011;33252;48.122;11.538;2023-07-13T05:41:14;4.88;;;3.22;;
47519;SDS011;33252;48.122;11.538;2023-07-13T05:43:40;4.82;;;3.50;;
47519;SDS011;33252;48.122;11.538;2023-07-13T05:46:05;4.88;;;2.70;;
47519;SDS011;33252;48.122;11.538;2023-07-13T05:48:31;4.15;;;3.20;;
47519;SDS011;33252;48.122;11.538;2023-07-13T05:50:57;7.15;;;2.70;;
47519;SDS011;33252;48.122;11.538;2023-07-13T05:53:23;5.35;;;3.42;;
47519;SDS011;33252;48.122;11.538;2023-07-13T05:55:48;5.20;;;2.83;;
47519;SDS011;33252;48.122;11.538;2023-07-13T05:58:18;6.13;;;2.92;;
47519;SDS011;33252;48.122;11.538;2023-07-13T06:00:44;4.28;;;3.40;;
47519;SDS011;33252;48.122;11.538;2023-07-13T06:03:11;4.60;;;3.03;;
47519;SDS011;33252;48.122;11.538;2023-07-13T06:05:37;4.85;;;3.42;;
47519;SDS011;33252;48.122;11.538;2023-07-13T06:08:04;6.50;;;3.33;;
47519;SDS011;33252;48.122;11.538;2023-07-13T06:10:32;5.40;;;2.78;;
47519;SDS011;33252;48.122;11.538;2023-07-13T06:12:58;4.43;;;3.20;;
47519;SDS011;33252;48.122;11.538;2023-07-13T06:15:24;5.75;;;2.60;;
47519;SDS011;33252;48.122;11.538;2023-07-13T06:17:49;4.22;;;3.40;;
47519;SDS011;33252;48.122;11.538;2023-07-13T06:20:15;5.63;;;3.47;;
47519;SDS011;33252;48.122;11.538;2023-07-13T06:22:41;6.72;;;3.75;;
47519;SDS011;33252;48.122;11.538;2023-07-13T06:25:07;4.30;;;3.25;;
47519;SDS011;33252;48.122;11.538;2023-07-13T06:27:33;4.65;;;3.10;;
47519;SDS011;33252;48.122;11.538;2023-07-13T06:29:58;5.15;;;2.53;;
47519;SDS011;33252;48.122;11.538;2023-07-13T06:32:24;3.70;;;2.65;;
47519;SDS011;33252;48.122;11.538;2023-07-13T06:34:50;7.50;;;2.40;;
47519;SDS011;33252;48.122;11.538;2023-07-13T06:37:16;4.97;;;2.75;;
47519;SDS011;33252;48.122;11.538;2023-07-13T06:39:42;3.45;;;2.30;;
47519;SDS011;33252;48.122;11.538;2023-07-13T06:42:08;4.97;;;2.25;;
47519;SDS011;33252;48.122;11.538;2023-07-13T06:44:34;4.70;;;2.83;;
47519;SDS011;33252;48.122;11.538;2023-07-13T06:47:00;3.65;;;2.63;;
47519;SDS011;33252;48.122;11.538;2023-07-13T06:49:25;5.18;;;2.70;;
47519;SDS011;33252;48.122;11.538;2023-07-13T06:51:51;7.60;;;3.65;;
47519;SDS011;33252;48.122;11.538;2023-07-13T06:54:17;4.45;;;3.20;;
47519;SDS011;33252;48.122;11.538;2023-07-13T06:56:42;5.25;;;2.78;;
47519;SDS011;33252;48.122;11.538;2023-07-13T06:59:08;3.95;;;1.83;;
47519;SDS011;33252;48.122;11.538;2023-07-13T07:01:34;4.85;;;2.35;;
47519;SDS011;33252;48.122;11.538;2023-07-13T07:03:59;3.95;;;1.92;;
47519;SDS011;33252;48.122;11.538;2023-07-13T07:06:25;3.15;;;2.38;;
47519;SDS011;33252;48.122;11.538;2023-07-13T07:08:51;4.43;;;2.30;;
47519;SDS011;33252;48.122;11.538;2023-07-13T07:11:24;4.32;;;2.05;;
47519;SDS011;33252;48.122;11.538;2023-07-13T07:13:51;4.90;;;2.33;;
47519;SDS011;33252;48.122;11.538;2023-07-13T07:16:18;4.25;;;2.42;;
47519;SDS011;33252;48.122;11.538;2023-07-13T07:18:44;7.85;;;3.22;;
47519;SDS011;33252;48.122;11.538;2023-07-13T07:21:10;4.57;;;2.67;;
47519;SDS011;33252;48.122;11.538;2023-07-13T07:23:36;5.68;;;2.03;;
47519;SDS011;33252;48.122;11.538;2023-07-13T07:26:02;2.83;;;2.13;;
47519;SDS011;33252;48.122;11.538;2023-07-13T07:28:28;5.32;;;2.17;;
47519;SDS011;33252;48.122;11.538;2023-07-13T07:30:55;4.60;;;2.55;;
47519;SDS011;33252;48.122;11.538;2023-07-13T07:33:22;8.57;;;2.83;;
47519;SDS011;33252;48.122;11.538;2023-07-13T07:35:48;2.72;;;2.50;;
47519;SDS011;33252;48.122;11.538;2023-07-13T07:38:14;5.28;;;2.90;;
47519;SDS011;33252;48.122;11.538;2023-07-13T07:40:40;4.47;;;2.33;;
47519;SDS011;33252;48.122;11.538;2023-07-13T07:43:07;5.95;;;3.50;;
47519;SDS011;33252;48.122;11.538;2023-07-13T07:45:33;3.08;;;2.40;;
47519;SDS011;33252;48.122;11.538;2023-07-13T07:47:59;6.20;;;2.33;;
47519;SDS011;33252;48.122;11.538;2023-07-13T07:50:25;4.82;;;2.60;;
47519;SDS011;33252;48.122;11.538;2023-07-13T07:52:52;5.15;;;2.10;;
47519;SDS011;33252;48.122;11.538;2023-07-13T07:55:18;8.10;;;3.08;;
47519;SDS011;33252;48.122;11.538;2023-07-13T07:57:43;3.70;;;2.42;;
47519;SDS011;33252;48.122;11.538;2023-07-13T08:00:09;5.85;;;2.45;;
47519;SDS011;33252;48.122;11.538;2023-07-13T08:02:35;4.53;;;2.50;;
47519;SDS011;33252;48.122;11.538;2023-07-13T08:05:01;4.35;;;2.25;;
47519;SDS011;33252;48.122;11.538;2023-07-13T08:07:29;3.58;;;2.40;;
47519;SDS011;33252;48.122;11.538;2023-07-13T08:09:56;3.95;;;2.42;;
47519;SDS011;33252;48.122;11.538;2023-07-13T08:12:21;4.63;;;2.22;;
47519;SDS011;33252;48.122;11.538;2023-07-13T08:14:49;4.38;;;2.20;;
47519;SDS011;33252;48.122;11.538;2023-07-13T08:17:19;5.25;;;2.40;;
47519;SDS011;33252;48.122;11.538;2023-07-13T08:19:45;5.90;;;2.53;;
47519;SDS011;33252;48.122;11.538;2023-07-13T08:22:11;3.53;;;1.65;;
47519;SDS011;33252;48.122;11.538;2023-07-13T08:24:37;3.95;;;1.58;;
47519;SDS011;33252;48.122;11.538;2023-07-13T08:27:02;6.80;;;2.63;;
47519;SDS011;33252;48.122;11.538;2023-07-13T08:29:28;5.97;;;2.50;;
47519;SDS011;33252;48.122;11.538;2023-07-13T08:31:57;3.83;;;2.08;;
47519;SDS011;33252;48.122;11.538;2023-07-13T08:34:23;5.70;;;2.15;;
47519;SDS011;33252;48.122;11.538;2023-07-13T08:36:48;4.10;;;2.25;;
47519;SDS011;33252;48.122;11.538;2023-07-13T08:39:14;10.02;;;2.80;;
47519;SDS011;33252;48.122;11.538;2023-07-13T08:41:39;4.25;;;2.40;;
47519;SDS011;33252;48.122;11.538;2023-07-13T08:44:06;5.63;;;2.42;;
47519;SDS011;33252;48.122;11.538;2023-07-13T08:46:43;3.88;;;2.60;;
47519;SDS011;33252;48.122;11.538;2023-07-13T08:49:12;9.13;;;3.30;;
47519;SDS011;33252;48.122;11.538;2023-07-13T08:51:42;6.38;;;2.92;;
47519;SDS011;33252;48.122;11.538;2023-07-13T08:54:21;4.75;;;2.75;;
47519;SDS011;33252;48.122;11.538;2023-07-13T08:57:01;8.70;;;2.28;;
47519;SDS011;33252;48.122;11.538;2023-07-13T08:59:36;9.73;;;6.75;;
47519;SDS011;33252;48.122;11.538;2023-07-13T09:04:38;7.20;;;2.28;;
47519;SDS011;33252;48.122;11.538;2023-07-13T09:13:37;5.20;;;2.10;;
47519;SDS011;33252;48.122;11.538;2023-07-13T09:16:12;5.57;;;1.90;;
47519;SDS011;33252;48.122;11.538;2023-07-13T09:18:38;6.10;;;2.13;;
47519;SDS011;33252;48.122;11.538;2023-07-13T09:21:18;3.15;;;1.73;;
47519;SDS011;33252;48.122;11.538;2023-07-13T09:23:49;7.38;;;1.90;;
47519;SDS011;33252;48.122;11.538;2023-07-13T09:26:22;2.70;;;1.92;;
47519;SDS011;33252;48.122;11.538;2023-07-13T09:28:54;4.22;;;1.67;;
47519;SDS011;33252;48.122;11.538;2023-07-13T09:31:39;3.55;;;1.60;;
47519;SDS011;33252;48.122;11.538;2023-07-13T09:34:10;3.38;;;1.67;;
47519;SDS011;33252;48.122;11.538;2023-07-13T09:36:37;5.18;;;2.15;;
47519;SDS011;33252;48.122;11.538;2023-07-13T09:41:38;3.13;;;1.60;;
47519;SDS011;33252;48.122;11.538;2023-07-13T09:44:13;3.08;;;1.92;;
47519;SDS011;33252;48.122;11.538;2023-07-13T09:46:45;3.97;;;1.63;;
47519;SDS011;33252;48.122;11.538;2023-07-13T09:49:16;4.15;;;2.58;;
47519;SDS011;33252;48.122;11.538;2023-07-13T09:51:42;3.65;;;1.58;;
47519;SDS011;33252;48.122;11.538;2023-07-13T09:54:27;3.60;;;1.80;;
47519;SDS011;33252;48.122;11.538;2023-07-13T09:56:54;6.65;;;2.13;;
47519;SDS011;33252;48.122;11.538;2023-07-13T09:59:22;4.85;;;2.22;;
47519;SDS011;33252;48.122;11.538;2023-07-13T10:01:49;4.80;;;1.70;;
47519;SDS011;33252;48.122;11.538;2023-07-13T10:04:19;4.40;;;2.78;;
47519;SDS011;33252;48.122;11.538;2023-07-13T10:06:45;3.78;;;2.47;;
47519;SDS011;33252;48.122;11.538;2023-07-13T10:09:16;2.03;;;1.65;;
47519;SDS011;33252;48.122;11.538;2023-07-13T10:11:43;2.15;;;1.48;;
47519;SDS011;33252;48.122;11.538;2023-07-13T10:14:11;5.85;;;1.75;;
47519;SDS011;33252;48.122;11.538;2023-07-13T10:16:43;6.35;;;1.98;;
47519;SDS011;33252;48.122;11.538;2023-07-13T10:19:26;3.38;;;1.45;;
47519;SDS011;33252;48.122;11.538;2023-07-13T10:21:57;4.78;;;1.30;;
47519;SDS011;33252;48.122;11.538;2023-07-13T10:24:26;7.68;;;1.63;;
47519;SDS011;33252;48.122;11.538;2023-07-13T10:27:00;4.93;;;1.30;;
47519;SDS011;33252;48.122;11.538;2023-07-13T10:29:29;2.65;;;0.88;;
47519;SDS011;33252;48.122;11.538;2023-07-13T10:32:00;4.18;;;1.73;;
47519;SDS011;33252;48.122;11.538;2023-07-13T10:34:26;1.52;;;1.05;;
47519;SDS011;33252;48.122;11.538;2023-07-13T10:36:53;5.40;;;1.10;;
47519;SDS011;33252;48.122;11.538;2023-07-13T10:39:20;2.40;;;0.88;;
47519;SDS011;33252;48.122;11.538;2023-07-13T10:41:55;5.80;;;1.35;;
47519;SDS011;33252;48.122;11.538;2023-07-13T10:44:29;5.43;;;1.55;;
47519;SDS011;33252;48.122;11.538;2023-07-13T10:47:04;3.70;;;1.20;;
47519;SDS011;33252;48.122;11.538;2023-07-13T10:49:33;5.00;;;1.10;;
47519;SDS011;33252;48.122;11.538;2023-07-13T10:52:01;4.20;;;1.13;;
47519;SDS011;33252;48.122;11.538;2023-07-13T10:54:30;2.40;;;1.30;;
47519;SDS011;33252;48.122;11.538;2023-07-13T10:59:43;2.42;;;0.80;;
47519;SDS011;33252;48.122;11.538;2023-07-13T11:02:16;6.40;;;1.77;;
47519;SDS011;33252;48.122;11.538;2023-07-13T11:04:54;2.10;;;1.15;;
47519;SDS011;33252;48.122;11.538;2023-07-13T11:07:29;4.53;;;1.02;;
47519;SDS011;33252;48.122;11.538;2023-07-13T11:09:58;6.82;;;1.33;;
47519;SDS011;33252;48.122;11.538;2023-07-13T11:22:53;5.03;;;2.70;;
47519;SDS011;33252;48.122;11.538;2023-07-13T11:25:43;3.95;;;1.10;;
47519;SDS011;33252;48.122;11.538;2023-07-13T11:35:36;3.85;;;1.20;;
47519;SDS011;33252;48.122;11.538;2023-07-13T11:38:12;3.72;;;1.25;;
47519;SDS011;33252;48.122;11.538;2023-07-13T11:40:45;3.67;;;1.55;;
47519;SDS011;33252;48.122;11.538;2023-07-13T11:43:13;4.18;;;1.67;;
47519;SDS011;33252;48.122;11.538;2023-07-13T11:45:41;2.72;;;0.90;;
47519;SDS011;33252;48.122;11.538;2023-07-13T11:48:18;3.60;;;0.85;;
47519;SDS011;33252;48.122;11.538;2023-07-13T11:50:51;3.03;;;1.15;;
47519;SDS011;33252;48.122;11.538;2023-07-13T11:53:21;3.85;;;1.42;;
47519;SDS011;33252;48.122;11.538;2023-07-13T11:55:47;3.92;;;1.10;;
47519;SDS011;33252;48.122;11.538;2023-07-13T11:58:14;4.97;;;0.98;;
47519;SDS011;33252;48.122;11.538;2023-07-13T12:00:46;5.75;;;1.15;;
47519;SDS011;33252;48.122;11.538;2023-07-13T12:03:13;1.95;;;1.08;;
47519;SDS011;33252;48.122;11.538;2023-07-13T12:05:55;2.17;;;1.00;;
47519;SDS011;33252;48.122;11.538;2023-07-13T12:08:25;1.85;;;1.10;;
47519;SDS011;33252;48.122;11.538;2023-07-13T12:11:02;2.58;;;1.30;;
47519;SDS011;33252;48.122;11.538;2023-07-13T12:13:35;1.30;;;1.00;;
47519;SDS011;33252;48.122;11.538;2023-07-13T12:16:07;1.77;;;0.90;;
47519;SDS011;33252;48.122;11.538;2023-07-13T12:18:39;4.55;;;1.52;;
47519;SDS011;33252;48.122;11.538;2023-07-13T12:21:12;3.20;;;1.20;;
47519;SDS011;33252;48.122;11.538;2023-07-13T12:23:42;4.60;;;1.65;;
47519;SDS011;33252;48.122;11.538;2023-07-13T12:26:09;1.98;;;0.80;;
47519;SDS011;33252;48.122;11.538;2023-07-13T12:28:55;2.13;;;1.20;;
47519;SDS011;33252;48.122;11.538;2023-07-13T12:31:37;3.53;;;1.35;;
47519;SDS011;33252;48.122;11.538;2023-07-13T12:34:08;2.15;;;1.20;;
47519;SDS011;33252;48.122;11.538;2023-07-13T12:36:38;2.83;;;1.40;;
47519;SDS011;33252;48.122;11.538;2023-07-13T12:41:43;1.58;;;0.90;;
47519;SDS011;33252;48.122;11.538;2023-07-13T12:44:14;2.83;;;1.35;;
47519;SDS011;33252;48.122;11.538;2023-07-13T12:46:58;2.78;;;1.67;;
47519;SDS011;33252;48.122;11.538;2023-07-13T12:49:31;3.67;;;1.08;;
47519;SDS011;33252;48.122;11.538;2023-07-13T12:52:03;4.18;;;1.10;;
47519;SDS011;33252;48.122;11.538;2023-07-13T12:54:38;2.05;;;1.10;;
47519;SDS011;33252;48.122;11.538;2023-07-13T12:57:05;3.53;;;1.23;;
47519;SDS011;33252;48.122;11.538;2023-07-13T12:59:34;1.38;;;1.20;;
47519;SDS011;33252;48.122;11.538;2023-07-13T13:02:01;3.05;;;1.05;;
47519;SDS011;33252;48.122;11.538;2023-07-13T13:04:38;2.63;;;1.20;;
47519;SDS011;33252;48.122;11.538;2023-07-13T13:07:05;2.55;;;1.27;;
47519;SDS011;33252;48.122;11.538;2023-07-13T13:09:34;2.83;;;1.17;;
47519;SDS011;33252;48.122;11.538;2023-07-13T13:12:00;2.17;;;1.13;;
47519;SDS011;33252;48.122;11.538;2023-07-13T13:14:25;1.80;;;0.90;;
47519;SDS011;33252;48.122;11.538;2023-07-13T13:16:51;4.50;;;1.30;;
47519;SDS011;33252;48.122;11.538;2023-07-13T13:19:20;2.55;;;0.95;;
47519;SDS011;33252;48.122;11.538;2023-07-13T13:21:51;2.60;;;1.02;;
47519;SDS011;33252;48.122;11.538;2023-07-13T13:24:20;2.28;;;1.02;;
47519;SDS011;33252;48.122;11.538;2023-07-13T13:26:48;3.10;;;1.30;;
47519;SDS011;33252;48.122;11.538;2023-07-13T13:29:20;1.67;;;1.05;;
47519;SDS011;33252;48.122;11.538;2023-07-13T13:31:51;1.85;;;1.00;;
47519;SDS011;33252;48.122;11.538;2023-07-13T13:34:17;2.05;;;1.00;;
47519;SDS011;33252;48.122;11.538;2023-07-13T13:36:46;1.80;;;1.00;;
47519;SDS011;33252;48.122;11.538;2023-07-13T13:39:18;2.22;;;0.95;;
47519;SDS011;33252;48.122;11.538;2023-07-13T13:41:46;4.00;;;0.93;;
47519;SDS011;33252;48.122;11.538;2023-07-13T13:44:13;2.35;;;1.05;;
47519;SDS011;33252;48.122;11.538;2023-07-13T13:46:40;2.60;;;1.40;;
47519;SDS011;33252;48.122;11.538;2023-07-13T13:49:11;5.05;;;1.27;;
47519;SDS011;33252;48.122;11.538;2023-07-13T13:51:40;2.72;;;1.10;;
47519;SDS011;33252;48.122;11.538;2023-07-13T13:54:09;2.10;;;1.27;;
47519;SDS011;33252;48.122;11.538;2023-07-13T13:56:41;3.53;;;1.10;;
47519;SDS011;33252;48.122;11.538;2023-07-13T13:59:08;2.65;;;0.85;;
47519;SDS011;33252;48.122;11.538;2023-07-13T14:01:34;3.63;;;1.38;;
47519;SDS011;33252;48.122;11.538;2023-07-13T14:04:00;6.95;;;1.50;;
47519;SDS011;33252;48.122;11.538;2023-07-13T14:06:26;2.55;;;1.23;;
47519;SDS011;33252;48.122;11.538;2023-07-13T14:08:53;2.30;;;1.10;;
47519;SDS011;33252;48.122;11.538;2023-07-13T14:11:20;1.70;;;0.90;;
47519;SDS011;33252;48.122;11.538;2023-07-13T14:13:50;3.72;;;1.23;;
47519;SDS011;33252;48.122;11.538;2023-07-13T14:16:20;2.15;;;1.35;;
47519;SDS011;33252;48.122;11.538;2023-07-13T14:18:48;3.30;;;1.33;;
47519;SDS011;33252;48.122;11.538;2023-07-13T14:21:19;3.25;;;1.00;;
47519;SDS011;33252;48.122;11.538;2023-07-13T14:23:46;2.28;;;0.95;;
47519;SDS011;33252;48.122;11.538;2023-07-13T14:26:17;3.10;;;0.85;;
47519;SDS011;33252;48.122;11.538;2023-07-13T14:28:45;3.40;;;0.90;;
47519;SDS011;33252;48.122;11.538;2023-07-13T14:31:13;2.58;;;1.08;;
47519;SDS011;33252;48.122;11.538;2023-07-13T14:33:41;5.43;;;1.48;;
47519;SDS011;33252;48.122;11.538;2023-07-13T14:38:54;3.75;;;1.90;;
47519;SDS011;33252;48.122;11.538;2023-07-13T14:41:21;1.15;;;0.80;;
47519;SDS011;33252;48.122;11.538;2023-07-13T14:43:47;2.65;;;0.70;;
47519;SDS011;33252;48.122;11.538;2023-07-13T14:46:18;1.88;;;0.90;;
47519;SDS011;33252;48.122;11.538;2023-07-13T14:48:57;3.67;;;0.80;;
47519;SDS011;33252;48.122;11.538;2023-07-13T14:51:32;2.78;;;1.33;;
47519;SDS011;33252;48.122;11.538;2023-07-13T14:54:03;2.60;;;0.85;;
47519;SDS011;33252;48.122;11.538;2023-07-13T14:56:30;1.73;;;1.30;;
47519;SDS011;33252;48.122;11.538;2023-07-13T14:58:56;3.42;;;1.20;;
47519;SDS011;33252;48.122;11.538;2023-07-13T15:01:22;1.05;;;0.52;;
47519;SDS011;33252;48.122;11.538;2023-07-13T15:03:49;1.65;;;0.85;;
47519;SDS011;33252;48.122;11.538;2023-07-13T15:06:16;4.22;;;0.98;;
47519;SDS011;33252;48.122;11.538;2023-07-13T15:08:44;3.22;;;1.02;;
47519;SDS011;33252;48.122;11.538;2023-07-13T15:11:10;1.25;;;0.95;;
47519;SDS011;33252;48.122;11.538;2023-07-13T15:13:37;2.58;;;0.90;;
47519;SDS011;33252;48.122;11.538;2023-07-13T15:16:03;3.03;;;0.75;;
47519;SDS011;33252;48.122;11.538;2023-07-13T15:18:34;5.50;;;0.98;;